Terminal Aerodrome Forecast
Issued by NWS

Home | Current Version | Previous Version | Text Only | Print | Product List | Glossary On
Versions: 1 2 3 4 5 6 7 8 9 10 11 12 13 14 15 16 17 18
000
FTUS44 KBMX 020520
TAFTCL
TAF
KTCL 020520Z 0206/0306 VRB03KT P6SM SCT250
      TEMPO 0209/0212 4SM BR
     FM021900 35004KT P6SM BKN050=

USA.gov is the U.S. government's official web portal to all federal, state and local government web resources and services.